Time;durP1;ratioP1;P1;durP2;ratioP2;P2;SDS_P1;SDS_P2;PMS_P1;PMS_P2;Temp;Humidity;BMP_temperature;BMP_pressure;BME280_temperature;BME280_humidity;BME280_pressure;Samples;Min_cycle;Max_cycle;Signal;HPM_P1;HPM_P2
2022/07/26 00:00:13;;;;;;;2.80;0.77;;;22.10;98.10;;;21.46;100.00;97409.31;5052251;28;20497;-65
2022/07/26 00:02:40;;;;;;;2.83;0.70;;;22.10;98.20;;;21.45;100.00;97418.19;5073016;28;20083;-65
2022/07/26 00:05:15;;;;;;;3.13;0.80;;;22.00;98.30;;;21.66;100.00;97411.94;5076279;28;20432;-65
2022/07/26 00:07:44;;;;;;;5.68;0.80;;;22.00;98.50;;;21.67;100.00;97411.81;5071475;28;20064;-65
2022/07/26 00:10:11;;;;;;;2.22;0.80;;;22.00;98.40;;;21.74;100.00;97409.47;5074800;28;20569;-64
2022/07/26 00:12:39;;;;;;;2.53;1.00;;;22.00;98.50;;;21.53;100.00;97406.97;5067716;28;20098;-64
2022/07/26 00:15:09;;;;;;;2.95;0.90;;;22.10;98.40;;;21.60;100.00;97413.34;5073702;28;20174;-65
2022/07/26 00:17:37;;;;;;;3.53;0.80;;;22.00;98.60;;;21.61;100.00;97417.66;5073853;28;20048;-65
2022/07/26 00:20:05;;;;;;;2.67;0.85;;;22.00;98.90;;;21.34;100.00;97417.47;5072469;28;20704;-64
2022/07/26 00:22:32;;;;;;;4.95;0.90;;;22.00;98.80;;;21.16;100.00;97433.94;5073427;28;20119;-65
2022/07/26 00:25:06;;;;;;;3.38;0.85;;;21.90;98.90;;;21.02;100.00;97435.16;5074361;28;20071;-65
2022/07/26 00:27:37;;;;;;;2.28;0.90;;;21.80;99.20;;;21.26;100.00;97431.34;5075696;28;20045;-65
2022/07/26 00:30:08;;;;;;;3.70;1.00;;;21.70;99.40;;;21.29;100.00;97431.91;5074626;28;20051;-65
2022/07/26 00:32:37;;;;;;;5.55;0.80;;;21.70;99.30;;;21.37;100.00;97433.88;5074283;28;20237;-65
2022/07/26 00:35:05;;;;;;;2.67;0.98;;;21.70;99.40;;;21.16;100.00;97443.69;5074781;28;20080;-65
2022/07/26 00:37:32;;;;;;;2.45;0.90;;;21.80;99.60;;;20.94;100.00;97449.97;5072974;28;20124;-65
2022/07/26 00:40:00;;;;;;;2.35;0.90;;;21.70;99.50;;;20.78;100.00;97448.69;5069769;28;20155;-65
2022/07/26 00:42:27;;;;;;;2.35;0.82;;;21.60;99.70;;;20.94;100.00;97448.22;5075776;28;20134;-65
2022/07/26 00:44:53;;;;;;;2.88;0.77;;;21.60;99.90;;;21.06;100.00;97460.31;5073043;28;20135;-65
2022/07/26 00:47:20;;;;;;;4.57;0.90;;;21.60;99.90;;;21.01;100.00;97456.41;5072432;28;20143;-65
2022/07/26 00:49:49;;;;;;;2.25;0.98;;;21.60;99.80;;;21.03;100.00;97455.31;5076195;28;20127;-64
2022/07/26 00:52:16;;;;;;;5.47;1.13;;;21.50;99.80;;;20.89;100.00;97458.28;5069667;28;20199;-65
2022/07/26 00:54:46;;;;;;;3.05;0.82;;;21.50;99.80;;;21.14;100.00;97454.34;5069936;28;20044;-64
2022/07/26 00:57:14;;;;;;;2.53;0.77;;;21.60;99.80;;;20.92;100.00;97458.06;5054461;28;20407;-65
2022/07/26 00:59:44;;;;;;;3.42;1.00;;;21.50;99.90;;;20.71;100.00;97473.06;5057006;28;20077;-64
2022/07/26 01:02:11;;;;;;;4.70;1.10;;;21.40;99.90;;;20.77;100.00;97480.47;5074459;28;20132;-64
2022/07/26 01:04:38;;;;;;;5.97;1.08;;;21.20;99.90;;;20.60;100.00;97468.75;5075000;28;20127;-64
2022/07/26 01:07:06;;;;;;;3.13;0.80;;;21.20;99.90;;;20.70;100.00;97474.88;5070516;28;20115;-64
2022/07/26 01:09:42;;;;;;;4.20;0.93;;;21.20;99.90;;;20.46;100.00;97481.25;5068156;28;20055;-64
2022/07/26 01:12:09;;;;;;;7.65;1.00;;;21.10;99.90;;;20.49;100.00;97477.53;5058093;28;20295;-64
2022/07/26 01:14:36;;;;;;;2.58;0.77;;;21.00;99.90;;;20.55;100.00;97474.38;5074028;28;20135;-65
2022/07/26 01:17:04;;;;;;;3.60;1.25;;;20.90;99.90;;;20.05;100.00;97476.81;5073490;28;20059;-64
2022/07/26 01:19:31;;;;;;;4.93;0.95;;;20.90;99.90;;;20.23;100.00;97482.31;5056998;28;20057;-65
2022/07/26 01:21:58;;;;;;;3.83;0.88;;;20.90;99.90;;;20.34;100.00;97478.81;5071571;28;20219;-65
2022/07/26 01:24:25;;;;;;;2.45;1.02;;;20.80;99.90;;;20.03;100.00;97484.00;5056679;28;20058;-65
2022/07/26 01:26:54;;;;;;;5.45;1.20;;;20.80;99.90;;;19.93;100.00;97490.97;5070144;28;20130;-65
2022/07/26 01:29:22;;;;;;;3.40;0.88;;;20.70;99.90;;;19.80;100.00;97483.25;5075865;28;20097;-64
2022/07/26 01:32:02;;;;;;;4.13;1.20;;;20.50;99.90;;;19.77;100.00;97480.88;5072175;28;20051;-64
2022/07/26 01:34:30;;;;;;;2.85;1.00;;;20.50;99.90;;;19.83;100.00;97478.56;5073950;28;20063;-66
2022/07/26 01:36:57;;;;;;;4.25;0.75;;;20.40;99.90;;;19.98;100.00;97479.13;5074290;28;20147;-67
2022/07/26 01:39:24;;;;;;;6.85;1.40;;;20.40;99.90;;;19.72;100.00;97480.41;5073818;28;20088;-65
2022/07/26 01:41:53;;;;;;;5.28;1.00;;;20.40;99.90;;;19.60;100.00;97482.22;5066746;28;20127;-65
2022/07/26 01:44:21;;;;;;;5.07;1.02;;;20.40;99.90;;;19.77;100.00;97481.69;5078786;28;20135;-65
2022/07/26 01:46:49;;;;;;;3.88;1.00;;;20.30;99.90;;;19.67;100.00;97485.19;5072171;28;20063;-66
2022/07/26 01:49:16;;;;;;;6.47;0.80;;;20.30;99.90;;;19.66;100.00;97487.00;5072461;28;20482;-65
2022/07/26 01:51:43;;;;;;;4.97;1.00;;;20.20;99.90;;;19.65;100.00;97477.41;5070644;28;20074;-65
2022/07/26 01:54:10;;;;;;;4.97;1.20;;;20.20;99.90;;;19.68;100.00;97482.41;5067990;28;20501;-65
2022/07/26 01:56:38;;;;;;;4.30;0.90;;;20.20;99.90;;;19.73;100.00;97484.69;5063858;28;20048;-65
2022/07/26 01:59:05;;;;;;;8.82;1.00;;;20.20;99.90;;;19.56;100.00;97478.97;5078893;28;20093;-65
2022/07/26 02:01:32;;;;;;;4.07;0.70;;;20.20;99.90;;;19.61;100.00;97482.09;5076241;28;20144;-65
2022/07/26 02:04:07;;;;;;;5.03;0.90;;;20.20;99.90;;;19.60;100.00;97482.22;5077558;28;20041;-65
2022/07/26 02:06:35;;;;;;;3.42;1.10;;;20.10;99.90;;;19.64;100.00;97484.47;5075778;28;20060;-66
2022/07/26 02:09:03;;;;;;;3.15;0.90;;;20.10;99.90;;;19.62;100.00;97488.19;5070873;28;20094;-65
2022/07/26 02:11:39;;;;;;;4.50;0.75;;;20.10;99.90;;;19.58;100.00;97478.88;5058164;28;20050;-65
2022/07/26 02:14:06;;;;;;;4.93;0.95;;;20.00;99.90;;;19.26;100.00;97498.06;5073260;28;20043;-65
2022/07/26 02:16:33;;;;;;;5.10;0.80;;;20.00;99.90;;;19.39;100.00;97493.50;5076722;28;20048;-64
2022/07/26 02:19:00;;;;;;;6.63;0.90;;;20.00;99.90;;;19.41;100.00;97493.41;5077115;28;20048;-64
2022/07/26 02:21:27;;;;;;;2.33;0.70;;;19.90;99.90;;;19.30;100.00;97491.59;5077831;28;20146;-64
2022/07/26 02:23:54;;;;;;;5.35;1.05;;;19.90;99.90;;;19.23;100.00;97496.53;5071668;28;20147;-65
2022/07/26 02:26:21;;;;;;;2.78;0.88;;;19.80;99.90;;;19.26;100.00;97499.88;5076434;28;20048;-64
2022/07/26 02:28:48;;;;;;;2.10;0.70;;;19.80;99.90;;;19.20;100.00;97491.50;5072698;28;20226;-64
2022/07/26 02:31:15;;;;;;;2.20;0.60;;;19.70;99.90;;;19.13;100.00;97492.09;5076855;28;20123;-64
2022/07/26 02:33:42;;;;;;;2.47;0.73;;;19.70;99.90;;;19.13;100.00;97490.28;5076365;28;20450;-64
2022/07/26 02:36:09;;;;;;;3.63;0.73;;;19.60;99.90;;;19.11;100.00;97491.38;5076817;28;20509;-64
2022/07/26 02:38:36;;;;;;;5.07;0.70;;;19.60;99.90;;;19.10;100.00;97492.34;5076631;28;20428;-64
2022/07/26 02:41:05;;;;;;;5.47;0.80;;;19.70;99.90;;;18.98;100.00;97494.16;5075603;28;20043;-64
2022/07/26 02:43:32;;;;;;;3.75;0.73;;;19.70;99.90;;;19.06;100.00;97502.25;5073828;28;20054;-64
2022/07/26 02:45:59;;;;;;;3.70;0.90;;;19.70;99.90;;;19.05;100.00;97494.50;5076314;28;20040;-64
2022/07/26 02:48:30;;;;;;;9.20;0.93;;;19.60;99.90;;;18.86;100.00;97502.97;5072164;28;20074;-64
2022/07/26 02:50:57;;;;;;;3.92;1.00;;;19.50;99.90;;;18.71;100.00;97503.19;5073380;28;20581;-63
2022/07/26 02:53:24;;;;;;;2.05;0.77;;;19.40;99.90;;;18.86;100.00;97502.97;5073542;28;20052;-64
2022/07/26 02:55:51;;;;;;;2.85;1.10;;;19.30;99.90;;;18.54;100.00;97503.63;5074847;28;20473;-65
2022/07/26 02:58:20;;;;;;;5.45;0.90;;;19.30;99.90;;;18.50;100.00;97512.72;5077925;28;20139;-65
2022/07/26 03:00:47;;;;;;;3.42;1.00;;;19.20;99.90;;;18.62;100.00;97511.78;5077635;28;20611;-64
2022/07/26 03:03:15;;;;;;;4.05;1.00;;;19.20;99.90;;;18.43;100.00;97511.47;5057067;28;20059;-64
2022/07/26 03:05:44;;;;;;;3.35;1.17;;;19.20;99.90;;;18.23;100.00;97519.09;5075724;28;20048;-64
2022/07/26 03:08:11;;;;;;;4.20;1.30;;;19.10;99.90;;;18.17;100.00;97525.63;5076257;28;20116;-65
2022/07/26 03:10:39;;;;;;;4.35;1.13;;;19.10;99.90;;;18.35;100.00;97525.22;5074941;28;20048;-65
2022/07/26 03:13:06;;;;;;;2.80;0.75;;;19.00;99.90;;;18.47;100.00;97524.28;5074583;28;20559;-65
2022/07/26 03:15:33;;;;;;;4.85;1.17;;;19.00;99.90;;;18.33;100.00;97522.69;5071285;28;20052;-65
2022/07/26 03:18:00;;;;;;;4.47;0.98;;;19.00;99.90;;;18.11;100.00;97528.72;5056716;28;20118;-64
2022/07/26 03:20:27;;;;;;;3.95;1.08;;;18.90;99.90;;;18.13;100.00;97534.69;5077856;28;20478;-64
2022/07/26 03:22:54;;;;;;;4.68;1.02;;;18.90;99.90;;;18.31;100.00;97524.59;5072264;28;20127;-63
2022/07/26 03:25:21;;;;;;;5.88;0.98;;;18.80;99.90;;;18.15;100.00;97527.56;5079070;28;20048;-64
2022/07/26 03:27:48;;;;;;;5.47;1.00;;;18.90;99.90;;;18.09;100.00;97532.41;5073016;28;20044;-65
2022/07/26 03:30:15;;;;;;;2.70;0.73;;;18.80;99.90;;;18.16;100.00;97531.00;5057727;28;20040;-64
2022/07/26 03:32:50;;;;;;;10.48;1.10;;;18.70;99.90;;;17.92;100.00;97526.59;5072677;28;20052;-65
2022/07/26 03:35:17;;;;;;;6.25;0.90;;;18.70;99.90;;;17.86;100.00;97537.56;5075897;28;20052;-64
2022/07/26 03:37:44;;;;;;;4.55;1.15;;;18.60;99.90;;;17.81;100.00;97537.03;5071943;28;20102;-65
2022/07/26 03:40:15;;;;;;;5.65;1.00;;;18.60;99.90;;;17.78;100.00;97540.69;5077323;28;20498;-64
2022/07/26 03:42:42;;;;;;;3.42;0.77;;;18.60;99.90;;;18.12;100.00;97543.53;5076213;28;20102;-65
2022/07/26 03:45:10;;;;;;;6.60;1.17;;;18.60;99.90;;;17.91;100.00;97542.47;5079364;28;20075;-65
2022/07/26 03:47:37;;;;;;;4.05;0.85;;;18.70;99.90;;;17.77;100.00;97543.44;5079546;28;20048;-64
2022/07/26 03:50:06;;;;;;;3.17;0.85;;;18.60;99.90;;;17.83;100.00;97543.03;5074604;28;20091;-65
2022/07/26 03:52:33;;;;;;;3.70;0.85;;;18.60;99.90;;;17.61;100.00;97546.34;5059134;28;20048;-65
2022/07/26 03:56:27;;;;;;;6.30;0.85;;;18.50;99.90;;;17.55;100.00;97537.09;5074307;28;20484;-65
2022/07/26 03:57:47;;;;;;;6.30;0.70;;;18.50;99.90;;;17.45;100.00;97538.72;5075338;28;20135;-64
2022/07/26 04:00:14;;;;;;;4.80;0.50;;;18.40;99.90;;;17.45;100.00;97533.47;5078318;28;20151;-64
2022/07/26 04:02:41;;;;;;;6.80;0.82;;;18.30;99.90;;;17.26;100.00;97540.97;5078191;28;20067;-65
2022/07/26 04:05:09;;;;;;;5.57;0.80;;;18.30;99.90;;;17.54;100.00;97537.25;5075343;28;20044;-65
2022/07/26 04:07:46;;;;;;;4.43;0.80;;;18.20;99.90;;;17.33;100.00;97532.56;5073680;28;20124;-64
2022/07/26 04:10:19;;;;;;;3.25;0.70;;;18.20;99.90;;;17.31;100.00;97544.09;5081641;28;20449;-63
2022/07/26 04:12:46;;;;;;;8.50;0.85;;;18.10;99.90;;;17.30;100.00;97548.50;5069990;28;20551;-64
2022/07/26 04:15:15;;;;;;;6.15;1.02;;;18.10;99.90;;;17.16;100.00;97560.91;5074218;28;20051;-64
2022/07/26 04:17:43;;;;;;;3.22;0.88;;;18.00;99.90;;;17.19;100.00;97545.78;5076923;28;20060;-65
2022/07/26 04:20:11;;;;;;;2.65;0.70;;;18.00;99.90;;;17.10;100.00;97554.31;5078643;28;20472;-64
2022/07/26 04:22:39;;;;;;;3.67;0.90;;;;;;;17.06;100.00;97558.06;5075588;28;20066;-65
2022/07/26 04:25:08;;;;;;;5.07;0.70;;;18.00;99.90;;;16.92;100.00;97559.88;5074714;28;20048;-64
2022/07/26 04:27:36;;;;;;;6.22;0.75;;;17.90;99.90;;;16.82;100.00;97563.25;5069152;28;20102;-64
2022/07/26 04:30:05;;;;;;;5.50;0.98;;;17.80;99.90;;;16.70;100.00;97576.19;5074717;28;20135;-65
2022/07/26 04:32:40;;;;;;;3.92;1.05;;;17.80;99.90;;;16.70;100.00;97572.75;5075936;28;20127;-65
2022/07/26 04:35:08;;;;;;;4.25;0.70;;;17.70;99.90;;;16.62;100.00;97578.47;5074804;28;20043;-64
2022/07/26 04:37:43;;;;;;;4.63;1.15;;;17.60;99.90;;;16.53;100.00;97579.09;5075825;28;20047;-64
2022/07/26 04:40:18;;;;;;;3.67;1.10;;;17.60;99.90;;;16.58;100.00;97581.41;5065893;28;20084;-64
2022/07/26 04:42:49;;;;;;;11.55;1.05;;;17.50;99.90;;;16.52;100.00;97591.38;5075521;28;20411;-64
2022/07/26 04:45:16;;;;;;;2.25;0.75;;;17.50;99.90;;;16.48;100.00;97592.50;5076793;28;20052;-65
2022/07/26 04:47:48;;;;;;;4.63;1.05;;;;;;;16.50;100.00;97597.66;5077206;28;20083;-64
2022/07/26 04:50:16;;;;;;;5.60;0.77;;;;;;;16.56;100.00;97596.41;5065530;28;20052;-65
2022/07/26 04:52:44;;;;;;;3.30;0.70;;;;;;;16.44;100.00;97596.25;5079919;28;20047;-64
2022/07/26 04:55:11;;;;;;;4.25;0.90;;;;;;;16.38;100.00;97599.31;5073294;28;20133;-65
2022/07/26 04:57:39;;;;;;;5.07;0.88;;;;;;;16.41;100.00;97593.84;5055243;28;20083;-65
2022/07/26 05:00:50;;;;;;;5.53;1.10;;;;;;;16.36;100.00;97584.63;5076297;28;20113;-65
2022/07/26 05:03:41;;;;;;;5.88;1.00;;;;;;;16.44;100.00;97600.66;5075601;28;20045;-64
2022/07/26 05:06:12;;;;;;;3.90;0.90;;;;;;;16.28;100.00;97599.09;5080412;28;20697;-64
2022/07/26 05:08:42;;;;;;;2.92;0.77;;;;;;;16.42;100.00;97606.03;5080058;28;20056;-65
2022/07/26 05:11:09;;;;;;;4.47;0.80;;;17.50;99.90;;;16.43;100.00;97606.88;5084268;28;20056;-64
2022/07/26 05:13:36;;;;;;;4.70;0.80;;;17.50;99.90;;;16.38;100.00;97608.97;5075401;28;20083;-65
2022/07/26 05:16:03;;;;;;;3.30;0.65;;;17.50;99.90;;;16.48;100.00;97610.84;5078064;28;20135;-64
2022/07/26 05:18:38;;;;;;;2.42;0.80;;;17.50;99.90;;;16.29;100.00;97613.00;5080910;28;20055;-64
2022/07/26 05:21:15;;;;;;;5.20;0.93;;;17.50;99.90;;;16.31;100.00;97619.81;5075511;28;20048;-64
2022/07/26 05:23:42;;;;;;;8.65;1.02;;;17.50;99.90;;;16.29;100.00;97620.88;5059984;28;20172;-64
2022/07/26 05:26:11;;;;;;;3.40;0.70;;;17.40;99.90;;;16.27;100.00;97627.97;5077607;28;20111;-64
2022/07/26 05:28:38;;;;;;;4.70;0.77;;;17.50;99.90;;;16.33;100.00;97629.34;5080275;28;20483;-64
2022/07/26 05:31:06;;;;;;;6.32;0.90;;;17.50;99.90;;;16.35;100.00;97644.03;5081044;28;20127;-64
2022/07/26 05:33:32;;;;;;;3.70;0.70;;;17.50;99.90;;;16.56;100.00;97622.59;5083546;28;20125;-64
2022/07/26 05:35:59;;;;;;;3.15;0.55;;;17.60;99.90;;;16.57;100.00;97625.13;5079962;28;20056;-64
2022/07/26 05:38:26;;;;;;;2.67;0.70;;;17.70;99.90;;;16.61;100.00;97620.53;5077082;28;20064;-65
2022/07/26 05:40:54;;;;;;;5.07;0.80;;;17.60;99.90;;;16.46;100.00;97622.38;5078692;28;20135;-65
2022/07/26 05:43:20;;;;;;;3.65;0.65;;;17.70;99.90;;;16.63;100.00;97619.50;5067089;28;20126;-64
2022/07/26 05:45:47;;;;;;;3.55;0.70;;;17.70;99.90;;;16.56;100.00;97615.59;5082036;28;20151;-64
2022/07/26 05:48:14;;;;;;;2.67;0.60;;;17.80;99.90;;;16.62;100.00;97620.41;5063350;28;20068;-64
2022/07/26 05:50:42;;;;;;;5.57;0.82;;;17.90;99.90;;;16.57;100.00;97617.25;5066438;28;20060;-64
2022/07/26 05:53:09;;;;;;;3.20;0.80;;;17.90;99.90;;;16.71;100.00;97613.72;5072717;28;20239;-64
2022/07/26 05:55:36;;;;;;;8.32;0.80;;;17.90;99.90;;;16.81;100.00;97619.22;5077592;28;20141;-65
2022/07/26 05:58:03;;;;;;;3.25;0.60;;;18.00;99.90;;;16.87;100.00;97610.94;5076356;28;20064;-64
2022/07/26 06:00:37;;;;;;;5.82;0.90;;;18.00;99.90;;;16.84;100.00;97616.41;5078955;28;20427;-64
2022/07/26 06:03:22;;;;;;;2.10;0.73;;;18.00;99.90;;;16.69;100.00;97636.56;5075831;28;20103;-64
2022/07/26 06:05:53;;;;;;;3.03;0.80;;;18.00;99.90;;;16.66;100.00;97636.78;5083770;28;20070;-64
2022/07/26 06:08:21;;;;;;;2.95;0.75;;;18.00;99.90;;;17.11;100.00;97618.94;5076023;28;20048;-64
2022/07/26 06:10:49;;;;;;;5.00;0.98;;;18.00;99.90;;;17.16;100.00;97624.69;5064170;28;20591;-64
2022/07/26 06:13:16;;;;;;;3.60;0.90;;;18.20;99.90;;;17.60;100.00;97623.38;5082886;28;20134;-64
2022/07/26 06:15:45;;;;;;;3.85;0.80;;;18.40;99.90;;;17.53;100.00;97620.34;5067643;28;20049;-65
2022/07/26 06:18:13;;;;;;;4.18;0.73;;;18.60;99.90;;;17.25;100.00;97625.84;5076954;28;20159;-64
2022/07/26 06:20:45;;;;;;;6.43;0.90;;;18.60;99.90;;;17.23;100.00;97622.50;5075601;28;20113;-64
2022/07/26 06:23:13;;;;;;;3.40;0.73;;;18.60;99.90;;;17.22;100.00;97629.53;5042752;28;20045;-64
2022/07/26 06:25:40;;;;;;;2.05;0.65;;;18.60;99.90;;;17.50;100.00;97625.81;5077722;28;20062;-64
2022/07/26 06:28:09;;;;;;;2.97;0.70;;;18.70;99.90;;;17.57;100.00;97626.25;5079840;28;20128;-64
2022/07/26 06:30:37;;;;;;;4.05;0.63;;;18.80;99.90;;;17.61;100.00;97625.09;5079892;28;20135;-64
2022/07/26 06:33:06;;;;;;;5.60;0.70;;;18.80;99.90;;;17.42;100.00;97649.13;5067049;28;20513;-64
2022/07/26 06:35:34;;;;;;;3.85;1.10;;;18.80;99.90;;;17.54;100.00;97629.91;5063377;28;20068;-64
2022/07/26 06:38:02;;;;;;;5.65;1.00;;;18.80;99.90;;;17.55;100.00;97631.59;5060244;28;20145;-64
2022/07/26 06:40:29;;;;;;;5.60;1.10;;;18.80;99.90;;;17.35;100.00;97635.59;5075955;28;20086;-64
2022/07/26 06:42:56;;;;;;;4.65;0.98;;;18.80;99.90;;;17.23;100.00;97640.88;5074631;28;20036;-64
2022/07/26 06:45:30;;;;;;;4.72;1.00;;;18.70;99.90;;;17.27;100.00;97642.34;5078369;28;20051;-64
2022/07/26 06:47:57;;;;;;;2.08;0.80;;;18.70;99.90;;;17.37;100.00;97640.75;5075608;28;20103;-65
2022/07/26 06:50:24;;;;;;;7.50;1.30;;;18.70;99.90;;;17.39;100.00;97638.03;5074350;28;20082;-64
2022/07/26 06:52:54;;;;;;;6.20;1.20;;;18.70;99.90;;;17.55;100.00;97623.72;5076972;28;21308;-64
2022/07/26 06:55:22;;;;;;;3.47;0.93;;;18.80;99.90;;;17.64;100.00;97621.41;5076639;28;20052;-64
2022/07/26 06:57:49;;;;;;;8.00;1.20;;;18.90;99.90;;;17.69;100.00;97622.72;5076437;28;20132;-64
2022/07/26 07:00:17;;;;;;;4.63;1.05;;;19.00;99.90;;;17.51;100.00;97647.66;5077287;28;20474;-64
2022/07/26 07:02:44;;;;;;;4.15;1.00;;;19.00;99.90;;;17.64;100.00;97626.66;5075235;28;20566;-64
2022/07/26 07:05:12;;;;;;;8.75;1.55;;;19.10;99.90;;;17.70;100.00;97624.44;5081860;28;20114;-64
2022/07/26 07:07:39;;;;;;;8.63;1.50;;;19.10;99.90;;;17.86;100.00;97615.47;5080785;28;20120;-64
2022/07/26 07:10:09;;;;;;;6.82;1.40;;;19.20;99.90;;;17.72;100.00;97626.94;5061556;28;20044;-64
2022/07/26 07:12:38;;;;;;;5.20;1.13;;;19.30;99.90;;;17.90;100.00;97625.69;5059592;28;20570;-65
2022/07/26 07:15:06;;;;;;;3.00;0.77;;;19.30;99.90;;;18.09;100.00;97619.09;5075818;28;20051;-64
2022/07/26 07:17:33;;;;;;;4.57;0.90;;;19.40;99.90;;;18.19;100.00;97607.78;5058903;28;20135;-64
2022/07/26 07:20:03;;;;;;;3.40;0.98;;;19.40;99.90;;;18.07;100.00;97616.56;5083602;28;20052;-64
2022/07/26 07:22:31;;;;;;;5.65;0.95;;;19.50;99.90;;;18.31;100.00;97613.09;5076987;28;20063;-64
2022/07/26 07:24:58;;;;;;;3.45;0.95;;;19.60;99.90;;;18.09;100.00;97616.47;5079659;28;20127;-64
2022/07/26 07:27:25;;;;;;;5.10;0.93;;;19.60;99.90;;;18.33;100.00;97619.06;5077565;28;20044;-64
2022/07/26 07:29:53;;;;;;;3.95;0.80;;;19.60;99.90;;;18.26;100.00;97616.06;5080159;28;20040;-64
2022/07/26 07:32:21;;;;;;;3.70;1.02;;;19.70;99.90;;;18.16;100.00;97617.69;5058832;28;20484;-64
2022/07/26 07:34:50;;;;;;;4.82;1.10;;;19.70;99.90;;;18.60;100.00;97608.31;5076119;28;20062;-64
2022/07/26 07:37:18;;;;;;;3.17;0.70;;;19.80;99.90;;;18.91;100.00;97604.25;5075855;28;20095;-65
2022/07/26 07:39:46;;;;;;;2.92;0.63;;;19.90;99.90;;;18.63;100.00;97607.25;5076169;28;20076;-64
2022/07/26 07:42:17;;;;;;;4.38;0.65;;;20.10;99.90;;;18.72;100.00;97614.44;5078480;28;20071;-65
2022/07/26 07:44:44;;;;;;;4.50;1.08;;;20.00;99.90;;;18.58;100.00;97603.16;5080286;28;20048;-64
2022/07/26 07:47:11;;;;;;;3.10;0.90;;;19.90;99.90;;;18.58;100.00;97615.47;5081687;28;20135;-64
2022/07/26 07:49:38;;;;;;;2.60;0.80;;;19.90;99.90;;;18.83;100.00;97621.56;5075414;28;20044;-64
2022/07/26 07:52:05;;;;;;;3.85;1.10;;;20.00;99.90;;;18.62;100.00;97619.56;5072980;28;20135;-65
2022/07/26 07:54:32;;;;;;;4.80;1.02;;;20.00;99.90;;;18.71;100.00;97634.66;5077713;28;20088;-65
2022/07/26 07:56:59;;;;;;;5.38;0.80;;;20.00;99.90;;;18.73;100.00;97619.59;5073246;28;20159;-65
2022/07/26 07:59:26;;;;;;;4.22;0.80;;;20.00;99.90;;;18.66;100.00;97615.75;5061351;28;20131;-65
2022/07/26 08:01:54;;;;;;;2.70;0.70;;;20.10;99.90;;;19.19;100.00;97618.75;5078593;28;20521;-65
2022/07/26 08:04:21;;;;;;;4.55;0.90;;;20.20;99.90;;;18.92;100.00;97623.50;5075021;28;20143;-65
2022/07/26 08:06:49;;;;;;;4.72;0.90;;;20.30;99.90;;;19.21;100.00;97616.84;5087482;28;20090;-65
2022/07/26 08:09:19;;;;;;;2.55;0.73;;;20.30;99.90;;;19.19;100.00;97623.19;5075719;28;20413;-65
2022/07/26 08:11:46;;;;;;;5.10;0.80;;;20.30;99.90;;;19.35;100.00;97628.09;5076839;28;20040;-64
2022/07/26 08:14:18;;;;;;;3.58;0.60;;;20.40;99.90;;;19.52;100.00;97618.88;5074670;28;20063;-64
2022/07/26 08:16:45;;;;;;;3.10;0.73;;;20.60;99.90;;;19.69;100.00;97621.06;5065273;28;20115;-64
2022/07/26 08:19:12;;;;;;;3.97;0.73;;;20.80;99.90;;;19.67;100.00;97614.22;5073947;28;20144;-64
2022/07/26 08:21:41;;;;;;;4.28;0.88;;;21.00;99.90;;;20.20;100.00;97602.03;5060300;28;20051;-64
2022/07/26 08:24:09;;;;;;;4.03;0.80;;;21.10;99.90;;;20.26;100.00;97604.16;5082385;28;20154;-64
2022/07/26 08:26:37;;;;;;;7.07;0.90;;;21.20;99.90;;;19.74;100.00;97615.44;5074965;28;20201;-64
2022/07/26 08:29:04;;;;;;;4.30;0.63;;;21.20;99.90;;;20.03;100.00;97613.09;5057689;28;20512;-64
2022/07/26 08:31:31;;;;;;;7.50;0.80;;;21.20;99.90;;;20.37;100.00;97608.56;5072979;28;20101;-64
2022/07/26 08:33:58;;;;;;;5.75;1.00;;;21.20;99.90;;;19.89;100.00;97618.63;5073112;28;20486;-65
2022/07/26 08:36:25;;;;;;;2.80;0.90;;;21.20;99.90;;;20.33;100.00;97612.41;5079991;28;20177;-64
2022/07/26 08:38:59;;;;;;;5.38;1.20;;;21.30;99.90;;;20.20;100.00;97609.94;5081112;28;20464;-64
2022/07/26 08:41:27;;;;;;;5.05;0.95;;;21.50;99.90;;;20.47;100.00;97624.47;5076874;28;20126;-64
2022/07/26 08:44:03;;;;;;;5.55;0.88;;;21.70;99.90;;;20.37;100.00;97623.56;5074746;28;20155;-64
2022/07/26 08:46:36;;;;;;;8.00;1.45;;;21.80;99.90;;;20.01;100.00;97615.03;5077307;28;20072;-64
2022/07/26 08:49:05;;;;;;;4.38;1.00;;;22.00;99.90;;;20.64;100.00;97618.66;5079976;28;20050;-64
2022/07/26 08:51:33;;;;;;;4.20;1.05;;;22.10;99.90;;;20.88;100.00;97604.38;5068205;28;20045;-64
2022/07/26 08:54:00;;;;;;;5.47;1.10;;;22.10;99.90;;;20.93;100.00;97617.19;5072524;28;20046;-65
2022/07/26 08:56:34;;;;;;;5.72;0.90;;;22.20;99.90;;;21.31;100.00;97620.03;5076610;28;20481;-64
2022/07/26 08:59:04;;;;;;;4.57;1.20;;;22.50;99.90;;;21.32;100.00;97610.31;5076614;28;20096;-65
2022/07/26 09:01:31;;;;;;;4.32;0.85;;;23.00;99.90;;;20.32;100.00;97631.84;5063725;28;20115;-64
2022/07/26 09:04:18;;;;;;;4.45;1.20;;;22.80;99.90;;;21.11;100.00;97613.00;5073525;28;20070;-65
2022/07/26 09:07:17;;;;;;;5.40;1.17;;;22.70;99.90;;;21.66;100.00;97618.81;5080666;28;20209;-64
2022/07/26 09:10:05;;;;;;;7.40;1.17;;;23.00;99.90;;;21.85;100.00;97599.56;5075093;28;20310;-64
2022/07/26 09:12:32;;;;;;;4.20;0.80;;;23.20;99.90;;;21.81;100.00;97600.81;5074706;28;20044;-65
2022/07/26 09:15:01;;;;;;;3.85;1.10;;;23.30;99.90;;;21.74;100.00;97628.75;5077251;28;20143;-64
2022/07/26 09:17:48;;;;;;;8.32;1.30;;;23.50;99.90;;;22.05;100.00;97615.44;5061416;28;20055;-64
2022/07/26 09:20:29;;;;;;;5.35;1.05;;;23.50;99.90;;;22.10;100.00;97611.44;5077283;28;20570;-65
2022/07/26 09:23:06;;;;;;;5.03;1.00;;;23.60;99.90;;;22.46;100.00;97605.63;5084922;28;20085;-65
2022/07/26 09:25:43;;;;;;;8.18;1.05;;;23.90;99.90;;;23.01;100.00;97605.06;5065585;28;20067;-66
2022/07/26 09:28:27;;;;;;;3.50;0.95;;;24.20;99.90;;;21.66;100.00;97612.72;5076809;28;20540;-65
2022/07/26 09:30:58;;;;;;;4.10;0.73;;;23.80;99.90;;;22.63;100.00;97615.53;5069722;28;20440;-65
2022/07/26 09:33:26;;;;;;;4.07;0.90;;;23.70;99.90;;;22.34;100.00;97620.81;5079362;28;20186;-65
2022/07/26 09:36:05;;;;;;;6.97;0.80;;;23.60;99.90;;;21.50;100.00;97619.31;5085411;28;20058;-66
2022/07/26 09:38:46;;;;;;;4.00;1.00;;;23.30;99.90;;;22.00;100.00;97617.66;5075920;28;20048;-65
2022/07/26 09:41:33;;;;;;;6.43;1.10;;;23.30;99.90;;;22.33;100.00;97606.75;5072464;28;20083;-65
2022/07/26 09:44:05;;;;;;;4.07;0.85;;;23.60;99.90;;;22.08;100.00;97623.13;5057928;28;20044;-65
2022/07/26 09:46:34;;;;;;;4.82;0.95;;;23.50;99.90;;;21.58;100.00;97631.88;5075042;28;20044;-65
2022/07/26 09:49:21;;;;;;;6.97;0.90;;;23.30;99.90;;;22.11;100.00;97625.47;5073467;28;20122;-65
2022/07/26 09:51:52;;;;;;;4.68;0.82;;;23.10;99.90;;;21.85;100.00;97626.00;5077731;28;20474;-65
2022/07/26 09:54:34;;;;;;;3.95;0.95;;;22.90;99.90;;;21.43;100.00;97623.47;5075357;28;20109;-65
2022/07/26 09:57:02;;;;;;;4.28;0.85;;;22.90;99.90;;;22.08;100.00;97625.78;5075147;28;20039;-65
2022/07/26 09:59:29;;;;;;;2.80;0.80;;;23.20;99.90;;;23.32;100.00;97614.44;5069683;28;20481;-65
2022/07/26 10:01:59;;;;;;;5.07;0.80;;;23.80;99.90;;;23.53;100.00;97616.88;5075438;28;20087;-66
2022/07/26 10:04:26;;;;;;;3.55;1.00;;;24.20;99.90;;;22.07;100.00;97624.09;5075758;28;20064;-66
2022/07/26 10:06:56;;;;;;;5.07;0.90;;;23.90;99.90;;;21.63;100.00;97631.47;5082052;28;20136;-65
2022/07/26 10:09:24;;;;;;;3.15;0.73;;;23.30;99.90;;;21.40;100.00;97630.78;5074448;28;20119;-65
2022/07/26 10:12:02;;;;;;;4.03;0.82;;;22.90;99.90;;;21.82;100.00;97636.81;5074632;28;20505;-64
2022/07/26 10:14:32;;;;;;;3.60;0.70;;;22.70;99.90;;;23.28;100.00;97614.88;5058546;28;20097;-64
2022/07/26 10:17:01;;;;;;;7.40;1.00;;;23.10;99.90;;;23.53;100.00;97611.56;5073984;28;20449;-64
2022/07/26 10:19:40;;;;;;;3.35;0.75;;;23.80;99.90;;;23.53;100.00;97622.16;5058229;28;20069;-65
2022/07/26 10:22:22;;;;;;;3.95;0.88;;;24.20;99.90;;;25.48;100.00;97599.47;5072314;28;20106;-64
2022/07/26 10:24:54;;;;;;;6.15;0.90;;;24.80;99.90;;;23.29;100.00;97629.81;5076271;28;20131;-64